sensor_id;sensor_type;location;lat;lon;timestamp;P1;durP1;ratioP1;P2;durP2;ratioP2
28926;SDS011;16038;47.692;9.400;2024-03-06T00:00:25;10.85;;;6.35;;
28926;SDS011;16038;47.692;9.400;2024-03-06T00:02:51;9.63;;;6.45;;
28926;SDS011;16038;47.692;9.400;2024-03-06T00:05:16;11.50;;;6.63;;
28926;SDS011;16038;47.692;9.400;2024-03-06T00:07:41;8.02;;;6.05;;
28926;SDS011;16038;47.692;9.400;2024-03-06T00:10:07;8.30;;;5.68;;
28926;SDS011;16038;47.692;9.400;2024-03-06T00:12:33;12.18;;;6.75;;
28926;SDS011;16038;47.692;9.400;2024-03-06T00:14:59;10.10;;;6.20;;
28926;SDS011;16038;47.692;9.400;2024-03-06T00:17:24;8.95;;;5.70;;
28926;SDS011;16038;47.692;9.400;2024-03-06T00:19:50;10.02;;;6.72;;
28926;SDS011;16038;47.692;9.400;2024-03-06T00:22:15;9.40;;;6.55;;
28926;SDS011;16038;47.692;9.400;2024-03-06T00:24:42;9.45;;;6.53;;
28926;SDS011;16038;47.692;9.400;2024-03-06T00:27:07;10.80;;;7.35;;
28926;SDS011;16038;47.692;9.400;2024-03-06T00:29:32;11.23;;;7.60;;
28926;SDS011;16038;47.692;9.400;2024-03-06T00:31:58;12.60;;;7.60;;
28926;SDS011;16038;47.692;9.400;2024-03-06T00:34:23;13.95;;;7.03;;
28926;SDS011;16038;47.692;9.400;2024-03-06T00:36:49;11.30;;;7.68;;
28926;SDS011;16038;47.692;9.400;2024-03-06T00:39:14;10.43;;;6.95;;
28926;SDS011;16038;47.692;9.400;2024-03-06T00:41:40;11.70;;;7.20;;
28926;SDS011;16038;47.692;9.400;2024-03-06T00:44:07;12.20;;;7.88;;
28926;SDS011;16038;47.692;9.400;2024-03-06T00:46:32;12.13;;;7.38;;
28926;SDS011;16038;47.692;9.400;2024-03-06T00:48:58;9.90;;;7.53;;
28926;SDS011;16038;47.692;9.400;2024-03-06T00:51:23;12.65;;;7.97;;
28926;SDS011;16038;47.692;9.400;2024-03-06T00:53:49;11.65;;;8.10;;
28926;SDS011;16038;47.692;9.400;2024-03-06T00:56:14;11.25;;;7.65;;
28926;SDS011;16038;47.692;9.400;2024-03-06T00:58:39;11.63;;;7.75;;
28926;SDS011;16038;47.692;9.400;2024-03-06T01:01:05;15.35;;;8.23;;
28926;SDS011;16038;47.692;9.400;2024-03-06T01:03:31;12.60;;;8.40;;
28926;SDS011;16038;47.692;9.400;2024-03-06T01:05:56;14.32;;;9.27;;
28926;SDS011;16038;47.692;9.400;2024-03-06T01:08:22;14.73;;;8.85;;
28926;SDS011;16038;47.692;9.400;2024-03-06T01:10:50;15.90;;;9.63;;
28926;SDS011;16038;47.692;9.400;2024-03-06T01:13:16;14.52;;;9.15;;
28926;SDS011;16038;47.692;9.400;2024-03-06T01:15:41;13.35;;;8.52;;
28926;SDS011;16038;47.692;9.400;2024-03-06T01:18:07;14.32;;;9.60;;
28926;SDS011;16038;47.692;9.400;2024-03-06T01:20:32;13.85;;;8.98;;
28926;SDS011;16038;47.692;9.400;2024-03-06T01:22:57;13.63;;;9.55;;
28926;SDS011;16038;47.692;9.400;2024-03-06T01:25:23;14.95;;;9.65;;
28926;SDS011;16038;47.692;9.400;2024-03-06T01:27:49;15.65;;;10.65;;
28926;SDS011;16038;47.692;9.400;2024-03-06T01:30:14;16.23;;;10.63;;
28926;SDS011;16038;47.692;9.400;2024-03-06T01:32:40;15.73;;;10.02;;
28926;SDS011;16038;47.692;9.400;2024-03-06T01:35:06;18.35;;;10.43;;
28926;SDS011;16038;47.692;9.400;2024-03-06T01:37:32;12.27;;;9.43;;
28926;SDS011;16038;47.692;9.400;2024-03-06T01:39:58;13.38;;;10.15;;
28926;SDS011;16038;47.692;9.400;2024-03-06T01:42:23;18.98;;;11.00;;
28926;SDS011;16038;47.692;9.400;2024-03-06T01:44:49;13.30;;;9.65;;
28926;SDS011;16038;47.692;9.400;2024-03-06T01:47:14;13.10;;;10.10;;
28926;SDS011;16038;47.692;9.400;2024-03-06T01:49:40;16.67;;;10.38;;
28926;SDS011;16038;47.692;9.400;2024-03-06T01:52:07;15.85;;;10.75;;
28926;SDS011;16038;47.692;9.400;2024-03-06T01:54:35;18.25;;;12.05;;
28926;SDS011;16038;47.692;9.400;2024-03-06T01:57:01;17.95;;;10.82;;
28926;SDS011;16038;47.692;9.400;2024-03-06T01:59:28;19.60;;;11.43;;
28926;SDS011;16038;47.692;9.400;2024-03-06T02:01:54;15.15;;;11.10;;
28926;SDS011;16038;47.692;9.400;2024-03-06T02:04:19;21.45;;;11.40;;
28926;SDS011;16038;47.692;9.400;2024-03-06T02:06:45;15.40;;;11.50;;
28926;SDS011;16038;47.692;9.400;2024-03-06T02:09:12;17.13;;;12.02;;
28926;SDS011;16038;47.692;9.400;2024-03-06T02:11:39;18.73;;;12.52;;
28926;SDS011;16038;47.692;9.400;2024-03-06T02:14:05;19.50;;;12.45;;
28926;SDS011;16038;47.692;9.400;2024-03-06T02:16:35;16.10;;;11.85;;
28926;SDS011;16038;47.692;9.400;2024-03-06T02:19:01;10.85;;;7.68;;
28926;SDS011;16038;47.692;9.400;2024-03-06T02:21:27;11.55;;;7.70;;
28926;SDS011;16038;47.692;9.400;2024-03-06T02:23:53;8.23;;;5.00;;
28926;SDS011;16038;47.692;9.400;2024-03-06T02:26:19;7.53;;;5.22;;
28926;SDS011;16038;47.692;9.400;2024-03-06T02:28:49;5.93;;;4.40;;
28926;SDS011;16038;47.692;9.400;2024-03-06T02:31:16;6.95;;;5.30;;
28926;SDS011;16038;47.692;9.400;2024-03-06T02:33:42;6.85;;;5.43;;
28926;SDS011;16038;47.692;9.400;2024-03-06T02:36:09;6.80;;;4.97;;
28926;SDS011;16038;47.692;9.400;2024-03-06T02:38:35;8.48;;;5.40;;
28926;SDS011;16038;47.692;9.400;2024-03-06T02:41:01;9.07;;;5.80;;
28926;SDS011;16038;47.692;9.400;2024-03-06T02:43:27;8.02;;;5.82;;
28926;SDS011;16038;47.692;9.400;2024-03-06T02:45:52;9.48;;;6.03;;
28926;SDS011;16038;47.692;9.400;2024-03-06T02:48:18;10.95;;;7.18;;
28926;SDS011;16038;47.692;9.400;2024-03-06T02:50:43;9.13;;;6.22;;
28926;SDS011;16038;47.692;9.400;2024-03-06T02:53:09;10.18;;;6.45;;
28926;SDS011;16038;47.692;9.400;2024-03-06T02:55:34;9.82;;;6.43;;
28926;SDS011;16038;47.692;9.400;2024-03-06T02:58:02;9.85;;;6.57;;
28926;SDS011;16038;47.692;9.400;2024-03-06T03:00:28;9.37;;;6.17;;
28926;SDS011;16038;47.692;9.400;2024-03-06T03:02:54;10.60;;;7.05;;
28926;SDS011;16038;47.692;9.400;2024-03-06T03:05:19;11.18;;;6.38;;
28926;SDS011;16038;47.692;9.400;2024-03-06T03:07:44;11.95;;;7.07;;
28926;SDS011;16038;47.692;9.400;2024-03-06T03:10:10;11.35;;;6.82;;
28926;SDS011;16038;47.692;9.400;2024-03-06T03:12:37;9.48;;;6.43;;
28926;SDS011;16038;47.692;9.400;2024-03-06T03:15:03;9.73;;;6.28;;
28926;SDS011;16038;47.692;9.400;2024-03-06T03:17:29;10.85;;;6.25;;
28926;SDS011;16038;47.692;9.400;2024-03-06T03:19:55;10.27;;;6.03;;
28926;SDS011;16038;47.692;9.400;2024-03-06T03:22:20;10.25;;;6.43;;
28926;SDS011;16038;47.692;9.400;2024-03-06T03:24:46;11.65;;;6.40;;
28926;SDS011;16038;47.692;9.400;2024-03-06T03:27:12;10.95;;;6.60;;
28926;SDS011;16038;47.692;9.400;2024-03-06T03:29:38;10.45;;;6.47;;
28926;SDS011;16038;47.692;9.400;2024-03-06T03:32:03;11.00;;;6.93;;
28926;SDS011;16038;47.692;9.400;2024-03-06T03:34:29;11.32;;;7.40;;
28926;SDS011;16038;47.692;9.400;2024-03-06T03:36:55;12.65;;;7.07;;
28926;SDS011;16038;47.692;9.400;2024-03-06T03:39:21;9.43;;;6.75;;
28926;SDS011;16038;47.692;9.400;2024-03-06T03:41:49;11.25;;;7.18;;
28926;SDS011;16038;47.692;9.400;2024-03-06T03:44:15;10.85;;;7.00;;
28926;SDS011;16038;47.692;9.400;2024-03-06T03:46:42;12.07;;;7.95;;
28926;SDS011;16038;47.692;9.400;2024-03-06T03:49:08;10.50;;;6.85;;
28926;SDS011;16038;47.692;9.400;2024-03-06T03:51:34;11.57;;;7.53;;
28926;SDS011;16038;47.692;9.400;2024-03-06T03:54:00;11.95;;;7.60;;
28926;SDS011;16038;47.692;9.400;2024-03-06T03:56:26;11.38;;;7.13;;
28926;SDS011;16038;47.692;9.400;2024-03-06T03:58:51;8.45;;;5.50;;
28926;SDS011;16038;47.692;9.400;2024-03-06T04:01:16;7.80;;;4.38;;
28926;SDS011;16038;47.692;9.400;2024-03-06T04:03:42;9.98;;;5.18;;
28926;SDS011;16038;47.692;9.400;2024-03-06T04:06:09;8.35;;;5.43;;
28926;SDS011;16038;47.692;9.400;2024-03-06T04:08:35;8.65;;;5.05;;
28926;SDS011;16038;47.692;9.400;2024-03-06T04:11:02;6.80;;;4.35;;
28926;SDS011;16038;47.692;9.400;2024-03-06T04:13:30;6.10;;;4.20;;
28926;SDS011;16038;47.692;9.400;2024-03-06T04:16:00;7.35;;;4.55;;
28926;SDS011;16038;47.692;9.400;2024-03-06T04:18:27;5.15;;;3.72;;
28926;SDS011;16038;47.692;9.400;2024-03-06T04:20:54;5.47;;;3.63;;
28926;SDS011;16038;47.692;9.400;2024-03-06T04:23:19;5.70;;;3.55;;
28926;SDS011;16038;47.692;9.400;2024-03-06T04:25:45;5.65;;;3.10;;
28926;SDS011;16038;47.692;9.400;2024-03-06T04:28:11;5.15;;;3.60;;
28926;SDS011;16038;47.692;9.400;2024-03-06T04:30:36;6.70;;;3.45;;
28926;SDS011;16038;47.692;9.400;2024-03-06T04:33:02;5.05;;;3.75;;
28926;SDS011;16038;47.692;9.400;2024-03-06T04:35:27;4.65;;;3.03;;
28926;SDS011;16038;47.692;9.400;2024-03-06T04:37:53;6.75;;;3.67;;
28926;SDS011;16038;47.692;9.400;2024-03-06T04:40:19;4.28;;;3.30;;
28926;SDS011;16038;47.692;9.400;2024-03-06T04:42:47;5.05;;;3.78;;
28926;SDS011;16038;47.692;9.400;2024-03-06T04:45:14;6.50;;;3.58;;
28926;SDS011;16038;47.692;9.400;2024-03-06T04:47:40;5.60;;;3.25;;
28926;SDS011;16038;47.692;9.400;2024-03-06T04:50:09;5.25;;;3.45;;
28926;SDS011;16038;47.692;9.400;2024-03-06T04:52:36;5.88;;;3.95;;
28926;SDS011;16038;47.692;9.400;2024-03-06T04:55:02;5.30;;;3.92;;
28926;SDS011;16038;47.692;9.400;2024-03-06T04:57:28;6.38;;;4.07;;
28926;SDS011;16038;47.692;9.400;2024-03-06T04:59:53;6.65;;;4.50;;
28926;SDS011;16038;47.692;9.400;2024-03-06T05:02:19;7.40;;;4.57;;
28926;SDS011;16038;47.692;9.400;2024-03-06T05:04:44;6.80;;;4.60;;
28926;SDS011;16038;47.692;9.400;2024-03-06T05:07:11;6.85;;;4.90;;
28926;SDS011;16038;47.692;9.400;2024-03-06T05:09:38;6.93;;;4.75;;
28926;SDS011;16038;47.692;9.400;2024-03-06T05:12:05;6.78;;;4.75;;
28926;SDS011;16038;47.692;9.400;2024-03-06T05:14:31;7.72;;;5.30;;
28926;SDS011;16038;47.692;9.400;2024-03-06T05:16:57;7.68;;;5.20;;
28926;SDS011;16038;47.692;9.400;2024-03-06T05:19:22;8.13;;;4.93;;
28926;SDS011;16038;47.692;9.400;2024-03-06T05:21:47;9.43;;;5.28;;
28926;SDS011;16038;47.692;9.400;2024-03-06T05:24:13;8.48;;;5.53;;
28926;SDS011;16038;47.692;9.400;2024-03-06T05:26:38;10.48;;;5.50;;
28926;SDS011;16038;47.692;9.400;2024-03-06T05:29:04;13.10;;;6.28;;
28926;SDS011;16038;47.692;9.400;2024-03-06T05:31:29;11.02;;;5.50;;
28926;SDS011;16038;47.692;9.400;2024-03-06T05:33:55;6.15;;;4.13;;
28926;SDS011;16038;47.692;9.400;2024-03-06T05:36:20;8.18;;;5.22;;
28926;SDS011;16038;47.692;9.400;2024-03-06T05:38:45;6.60;;;4.43;;
28926;SDS011;16038;47.692;9.400;2024-03-06T05:41:12;7.03;;;4.60;;
28926;SDS011;16038;47.692;9.400;2024-03-06T05:43:38;6.78;;;4.40;;
28926;SDS011;16038;47.692;9.400;2024-03-06T05:46:03;7.70;;;4.75;;
28926;SDS011;16038;47.692;9.400;2024-03-06T05:48:29;6.82;;;4.03;;
28926;SDS011;16038;47.692;9.400;2024-03-06T05:50:55;6.38;;;4.20;;
28926;SDS011;16038;47.692;9.400;2024-03-06T05:53:20;6.50;;;4.20;;
28926;SDS011;16038;47.692;9.400;2024-03-06T05:55:45;8.23;;;4.55;;
28926;SDS011;16038;47.692;9.400;2024-03-06T05:58:11;7.85;;;4.63;;
28926;SDS011;16038;47.692;9.400;2024-03-06T06:00:36;9.20;;;5.65;;
28926;SDS011;16038;47.692;9.400;2024-03-06T06:03:03;7.88;;;5.50;;
28926;SDS011;16038;47.692;9.400;2024-03-06T06:05:28;6.97;;;4.95;;
28926;SDS011;16038;47.692;9.400;2024-03-06T06:07:53;5.82;;;4.30;;
28926;SDS011;16038;47.692;9.400;2024-03-06T06:10:19;6.45;;;4.40;;
28926;SDS011;16038;47.692;9.400;2024-03-06T06:12:45;6.28;;;4.50;;
28926;SDS011;16038;47.692;9.400;2024-03-06T06:15:10;6.63;;;4.28;;
28926;SDS011;16038;47.692;9.400;2024-03-06T06:17:35;6.32;;;4.68;;
28926;SDS011;16038;47.692;9.400;2024-03-06T06:20:03;6.90;;;4.80;;
28926;SDS011;16038;47.692;9.400;2024-03-06T06:22:35;7.03;;;4.47;;
28926;SDS011;16038;47.692;9.400;2024-03-06T06:25:01;8.10;;;5.38;;
28926;SDS011;16038;47.692;9.400;2024-03-06T06:27:28;8.20;;;4.93;;
28926;SDS011;16038;47.692;9.400;2024-03-06T06:29:54;8.52;;;5.40;;
28926;SDS011;16038;47.692;9.400;2024-03-06T06:32:20;7.68;;;5.43;;
28926;SDS011;16038;47.692;9.400;2024-03-06T06:34:46;5.97;;;4.40;;
28926;SDS011;16038;47.692;9.400;2024-03-06T06:37:11;7.80;;;5.03;;
28926;SDS011;16038;47.692;9.400;2024-03-06T06:39:37;9.40;;;5.28;;
28926;SDS011;16038;47.692;9.400;2024-03-06T06:42:02;6.90;;;5.00;;
28926;SDS011;16038;47.692;9.400;2024-03-06T06:44:28;8.10;;;5.20;;
28926;SDS011;16038;47.692;9.400;2024-03-06T06:46:53;9.55;;;5.65;;
28926;SDS011;16038;47.692;9.400;2024-03-06T06:49:19;7.07;;;4.97;;
28926;SDS011;16038;47.692;9.400;2024-03-06T06:51:45;7.93;;;5.97;;
28926;SDS011;16038;47.692;9.400;2024-03-06T06:54:10;7.75;;;5.53;;
28926;SDS011;16038;47.692;9.400;2024-03-06T06:56:36;8.52;;;5.60;;
28926;SDS011;16038;47.692;9.400;2024-03-06T06:59:01;8.07;;;5.60;;
28926;SDS011;16038;47.692;9.400;2024-03-06T07:01:27;7.40;;;5.72;;
28926;SDS011;16038;47.692;9.400;2024-03-06T07:03:52;7.40;;;5.32;;
28926;SDS011;16038;47.692;9.400;2024-03-06T07:06:18;8.18;;;5.78;;
28926;SDS011;16038;47.692;9.400;2024-03-06T07:08:43;9.23;;;5.15;;
28926;SDS011;16038;47.692;9.400;2024-03-06T07:11:09;11.15;;;5.82;;
28926;SDS011;16038;47.692;9.400;2024-03-06T07:13:36;8.13;;;6.22;;
28926;SDS011;16038;47.692;9.400;2024-03-06T07:16:02;8.98;;;5.78;;
28926;SDS011;16038;47.692;9.400;2024-03-06T07:18:29;7.05;;;5.07;;
28926;SDS011;16038;47.692;9.400;2024-03-06T07:20:55;8.02;;;5.38;;
28926;SDS011;16038;47.692;9.400;2024-03-06T07:23:20;6.70;;;5.22;;
28926;SDS011;16038;47.692;9.400;2024-03-06T07:25:45;8.02;;;5.20;;
28926;SDS011;16038;47.692;9.400;2024-03-06T07:28:11;8.90;;;6.13;;
28926;SDS011;16038;47.692;9.400;2024-03-06T07:30:36;9.63;;;6.38;;
28926;SDS011;16038;47.692;9.400;2024-03-06T07:33:02;9.45;;;6.20;;
28926;SDS011;16038;47.692;9.400;2024-03-06T07:35:28;9.27;;;6.30;;
28926;SDS011;16038;47.692;9.400;2024-03-06T07:37:53;8.27;;;5.90;;
28926;SDS011;16038;47.692;9.400;2024-03-06T07:40:18;11.65;;;6.85;;
28926;SDS011;16038;47.692;9.400;2024-03-06T07:42:44;8.68;;;6.28;;
28926;SDS011;16038;47.692;9.400;2024-03-06T07:45:09;8.13;;;5.75;;
28926;SDS011;16038;47.692;9.400;2024-03-06T07:47:35;8.68;;;6.13;;
28926;SDS011;16038;47.692;9.400;2024-03-06T07:50:03;11.35;;;6.78;;
28926;SDS011;16038;47.692;9.400;2024-03-06T07:52:31;10.30;;;6.63;;
28926;SDS011;16038;47.692;9.400;2024-03-06T07:54:57;10.77;;;7.00;;
28926;SDS011;16038;47.692;9.400;2024-03-06T07:57:22;16.45;;;8.65;;
28926;SDS011;16038;47.692;9.400;2024-03-06T07:59:47;11.13;;;7.63;;
28926;SDS011;16038;47.692;9.400;2024-03-06T08:02:14;11.25;;;6.97;;
28926;SDS011;16038;47.692;9.400;2024-03-06T08:04:39;10.73;;;6.93;;
28926;SDS011;16038;47.692;9.400;2024-03-06T08:07:05;10.25;;;7.03;;
28926;SDS011;16038;47.692;9.400;2024-03-06T08:09:30;11.57;;;7.47;;
28926;SDS011;16038;47.692;9.400;2024-03-06T08:11:56;10.13;;;7.13;;
28926;SDS011;16038;47.692;9.400;2024-03-06T08:14:22;9.98;;;6.63;;
28926;SDS011;16038;47.692;9.400;2024-03-06T08:16:48;10.10;;;7.03;;
28926;SDS011;16038;47.692;9.400;2024-03-06T08:19:14;11.93;;;7.40;;
28926;SDS011;16038;47.692;9.400;2024-03-06T08:21:40;10.90;;;6.57;;
28926;SDS011;16038;47.692;9.400;2024-03-06T08:24:05;9.43;;;6.25;;
28926;SDS011;16038;47.692;9.400;2024-03-06T08:26:31;10.57;;;6.95;;
28926;SDS011;16038;47.692;9.400;2024-03-06T08:28:56;11.00;;;7.05;;
28926;SDS011;16038;47.692;9.400;2024-03-06T08:31:22;9.85;;;6.82;;
28926;SDS011;16038;47.692;9.400;2024-03-06T08:33:47;11.38;;;6.70;;
28926;SDS011;16038;47.692;9.400;2024-03-06T08:36:13;10.15;;;6.53;;
28926;SDS011;16038;47.692;9.400;2024-03-06T08:38:41;9.68;;;6.90;;
28926;SDS011;16038;47.692;9.400;2024-03-06T08:41:07;11.43;;;7.13;;
28926;SDS011;16038;47.692;9.400;2024-03-06T08:43:32;11.00;;;6.57;;
28926;SDS011;16038;47.692;9.400;2024-03-06T08:45:58;10.90;;;7.25;;
28926;SDS011;16038;47.692;9.400;2024-03-06T08:48:23;9.75;;;6.55;;
28926;SDS011;16038;47.692;9.400;2024-03-06T08:50:49;9.38;;;6.82;;
28926;SDS011;16038;47.692;9.400;2024-03-06T08:53:16;11.65;;;8.88;;
28926;SDS011;16038;47.692;9.400;2024-03-06T08:55:41;10.45;;;6.80;;
28926;SDS011;16038;47.692;9.400;2024-03-06T08:58:07;12.68;;;7.10;;
28926;SDS011;16038;47.692;9.400;2024-03-06T09:00:34;10.23;;;6.55;;
28926;SDS011;16038;47.692;9.400;2024-03-06T09:02:59;9.82;;;6.40;;
28926;SDS011;16038;47.692;9.400;2024-03-06T09:05:25;9.82;;;6.35;;
28926;SDS011;16038;47.692;9.400;2024-03-06T09:07:51;9.80;;;6.30;;
28926;SDS011;16038;47.692;9.400;2024-03-06T09:10:17;9.77;;;6.25;;
28926;SDS011;16038;47.692;9.400;2024-03-06T09:12:44;9.35;;;6.47;;
28926;SDS011;16038;47.692;9.400;2024-03-06T09:15:10;9.70;;;6.07;;
28926;SDS011;16038;47.692;9.400;2024-03-06T09:17:36;9.75;;;6.25;;
28926;SDS011;16038;47.692;9.400;2024-03-06T09:20:02;10.80;;;7.05;;
28926;SDS011;16038;47.692;9.400;2024-03-06T09:22:35;15.52;;;6.30;;
28926;SDS011;16038;47.692;9.400;2024-03-06T09:25:01;10.13;;;6.70;;
28926;SDS011;16038;47.692;9.400;2024-03-06T09:27:27;9.98;;;6.53;;
28926;SDS011;16038;47.692;9.400;2024-03-06T09:29:52;8.95;;;6.15;;
28926;SDS011;16038;47.692;9.400;2024-03-06T09:32:18;11.30;;;6.60;;
28926;SDS011;16038;47.692;9.400;2024-03-06T09:34:44;11.60;;;6.47;;
28926;SDS011;16038;47.692;9.400;2024-03-06T09:37:09;8.57;;;6.15;;
28926;SDS011;16038;47.692;9.400;2024-03-06T09:39:35;11.48;;;6.13;;
28926;SDS011;16038;47.692;9.400;2024-03-06T09:42:00;9.23;;;6.05;;
28926;SDS011;16038;47.692;9.400;2024-03-06T09:44:27;8.38;;;5.95;;
28926;SDS011;16038;47.692;9.400;2024-03-06T09:46:52;9.43;;;6.50;;
28926;SDS011;16038;47.692;9.400;2024-03-06T09:49:20;9.82;;;6.38;;
28926;SDS011;16038;47.692;9.400;2024-03-06T09:51:47;9.30;;;6.25;;
28926;SDS011;16038;47.692;9.400;2024-03-06T09:54:15;8.43;;;5.88;;
28926;SDS011;16038;47.692;9.400;2024-03-06T09:56:41;7.90;;;5.03;;
28926;SDS011;16038;47.692;9.400;2024-03-06T09:59:08;8.25;;;5.65;;
28926;SDS011;16038;47.692;9.400;2024-03-06T10:01:34;9.30;;;6.20;;
28926;SDS011;16038;47.692;9.400;2024-03-06T10:04:38;8.45;;;5.60;;
28926;SDS011;16038;47.692;9.400;2024-03-06T10:06:59;9.20;;;6.70;;
28926;SDS011;16038;47.692;9.400;2024-03-06T10:09:25;8.63;;;6.32;;
28926;SDS011;16038;47.692;9.400;2024-03-06T10:11:52;10.75;;;6.95;;
28926;SDS011;16038;47.692;9.400;2024-03-06T10:14:19;11.80;;;7.03;;
28926;SDS011;16038;47.692;9.400;2024-03-06T10:19:23;9.82;;;6.57;;
28926;SDS011;16038;47.692;9.400;2024-03-06T10:21:50;11.07;;;6.45;;
28926;SDS011;16038;47.692;9.400;2024-03-06T10:24:26;9.02;;;6.85;;
28926;SDS011;16038;47.692;9.400;2024-03-06T10:26:54;10.13;;;6.32;;
28926;SDS011;16038;47.692;9.400;2024-03-06T10:29:22;10.33;;;7.27;;
28926;SDS011;16038;47.692;9.400;2024-03-06T10:31:53;7.60;;;6.03;;
28926;SDS011;16038;47.692;9.400;2024-03-06T10:34:23;9.07;;;6.13;;
28926;SDS011;16038;47.692;9.400;2024-03-06T10:36:56;8.07;;;5.85;;
28926;SDS011;16038;47.692;9.400;2024-03-06T10:39:24;8.45;;;5.97;;
28926;SDS011;16038;47.692;9.400;2024-03-06T10:41:51;12.30;;;6.13;;
28926;SDS011;16038;47.692;9.400;2024-03-06T10:44:22;8.30;;;5.53;;
28926;SDS011;16038;47.692;9.400;2024-03-06T10:47:00;12.23;;;6.72;;
28926;SDS011;16038;47.692;9.400;2024-03-06T10:49:27;9.15;;;6.50;;
28926;SDS011;16038;47.692;9.400;2024-03-06T10:51:54;11.50;;;6.25;;
28926;SDS011;16038;47.692;9.400;2024-03-06T10:54:22;9.45;;;6.82;;
28926;SDS011;16038;47.692;9.400;2024-03-06T10:56:51;9.43;;;6.80;;
28926;SDS011;16038;47.692;9.400;2024-03-06T10:59:18;9.52;;;6.28;;
28926;SDS011;16038;47.692;9.400;2024-03-06T11:01:46;11.30;;;6.35;;
28926;SDS011;16038;47.692;9.400;2024-03-06T11:04:12;8.50;;;5.50;;
28926;SDS011;16038;47.692;9.400;2024-03-06T11:06:40;12.82;;;6.68;;
28926;SDS011;16038;47.692;9.400;2024-03-06T11:09:05;11.18;;;7.32;;
28926;SDS011;16038;47.692;9.400;2024-03-06T11:11:49;9.40;;;6.40;;
28926;SDS011;16038;47.692;9.400;2024-03-06T11:14:22;9.10;;;5.65;;
28926;SDS011;16038;47.692;9.400;2024-03-06T11:28:11;6.57;;;4.85;;
28926;SDS011;16038;47.692;9.400;2024-03-06T11:31:24;8.90;;;5.43;;
28926;SDS011;16038;47.692;9.400;2024-03-06T11:33:36;7.95;;;5.32;;
28926;SDS011;16038;47.692;9.400;2024-03-06T11:36:15;8.27;;;5.57;;
28926;SDS011;16038;47.692;9.400;2024-03-06T11:38:55;9.52;;;5.20;;
28926;SDS011;16038;47.692;9.400;2024-03-06T11:41:26;7.13;;;4.78;;
28926;SDS011;16038;47.692;9.400;2024-03-06T11:43:53;8.35;;;4.63;;
28926;SDS011;16038;47.692;9.400;2024-03-06T11:46:20;9.05;;;5.70;;
28926;SDS011;16038;47.692;9.400;2024-03-06T11:48:55;9.75;;;5.90;;
28926;SDS011;16038;47.692;9.400;2024-03-06T11:51:24;9.43;;;6.50;;
28926;SDS011;16038;47.692;9.400;2024-03-06T11:53:51;8.95;;;5.80;;
28926;SDS011;16038;47.692;9.400;2024-03-06T11:56:18;10.25;;;6.03;;
28926;SDS011;16038;47.692;9.400;2024-03-06T11:58:44;7.22;;;5.10;;
28926;SDS011;16038;47.692;9.400;2024-03-06T12:01:10;7.60;;;5.72;;
28926;SDS011;16038;47.692;9.400;2024-03-06T12:03:36;12.50;;;9.23;;
28926;SDS011;16038;47.692;9.400;2024-03-06T12:06:01;9.52;;;5.70;;
28926;SDS011;16038;47.692;9.400;2024-03-06T12:08:28;7.78;;;5.47;;
28926;SDS011;16038;47.692;9.400;2024-03-06T12:10:54;7.97;;;5.35;;
28926;SDS011;16038;47.692;9.400;2024-03-06T12:13:23;7.45;;;5.32;;
28926;SDS011;16038;47.692;9.400;2024-03-06T12:15:49;7.32;;;5.25;;
28926;SDS011;16038;47.692;9.400;2024-03-06T12:18:16;9.38;;;6.50;;
28926;SDS011;16038;47.692;9.400;2024-03-06T12:20:44;8.80;;;5.72;;
28926;SDS011;16038;47.692;9.400;2024-03-06T12:23:23;8.77;;;5.20;;
28926;SDS011;16038;47.692;9.400;2024-03-06T12:25:50;8.35;;;6.25;;
28926;SDS011;16038;47.692;9.400;2024-03-06T12:28:16;10.73;;;8.10;;
28926;SDS011;16038;47.692;9.400;2024-03-06T12:30:48;9.35;;;6.25;;
28926;SDS011;16038;47.692;9.400;2024-03-06T12:33:16;7.35;;;4.97;;
28926;SDS011;16038;47.692;9.400;2024-03-06T12:35:42;8.60;;;6.00;;
28926;SDS011;16038;47.692;9.400;2024-03-06T12:38:14;13.02;;;8.65;;
28926;SDS011;16038;47.692;9.400;2024-03-06T12:40:40;9.93;;;6.50;;
28926;SDS011;16038;47.692;9.400;2024-03-06T12:43:09;7.10;;;5.32;;
28926;SDS011;16038;47.692;9.400;2024-03-06T12:45:35;15.00;;;9.27;;
28926;SDS011;16038;47.692;9.400;2024-03-06T12:48:02;10.63;;;5.10;;
28926;SDS011;16038;47.692;9.400;2024-03-06T12:50:28;7.93;;;4.43;;
28926;SDS011;16038;47.692;9.400;2024-03-06T12:52:53;10.00;;;6.68;;
28926;SDS011;16038;47.692;9.400;2024-03-06T12:55:19;9.57;;;5.50;;
28926;SDS011;16038;47.692;9.400;2024-03-06T12:57:45;7.53;;;5.10;;
28926;SDS011;16038;47.692;9.400;2024-03-06T13:00:11;5.68;;;4.15;;
28926;SDS011;16038;47.692;9.400;2024-03-06T13:02:43;4.15;;;3.25;;
28926;SDS011;16038;47.692;9.400;2024-03-06T13:05:09;3.87;;;2.80;;
28926;SDS011;16038;47.692;9.400;2024-03-06T13:07:35;9.32;;;6.10;;
28926;SDS011;16038;47.692;9.400;2024-03-06T13:10:01;7.70;;;4.80;;
28926;SDS011;16038;47.692;9.400;2024-03-06T13:12:30;7.28;;;5.32;;
28926;SDS011;16038;47.692;9.400;2024-03-06T13:14:55;9.23;;;6.32;;
28926;SDS011;16038;47.692;9.400;2024-03-06T13:17:21;6.90;;;4.95;;
28926;SDS011;16038;47.692;9.400;2024-03-06T13:19:47;11.13;;;7.60;;
28926;SDS011;16038;47.692;9.400;2024-03-06T13:22:12;11.40;;;7.65;;
28926;SDS011;16038;47.692;9.400;2024-03-06T13:24:37;8.13;;;5.40;;
28926;SDS011;16038;47.692;9.400;2024-03-06T13:27:03;9.35;;;6.18;;
28926;SDS011;16038;47.692;9.400;2024-03-06T13:29:29;6.10;;;5.40;;
28926;SDS011;16038;47.692;9.400;2024-03-06T13:31:54;7.38;;;4.68;;
28926;SDS011;16038;47.692;9.400;2024-03-06T13:34:20;11.82;;;7.88;;
28926;SDS011;16038;47.692;9.400;2024-03-06T13:36:45;7.15;;;4.28;;
28926;SDS011;16038;47.692;9.400;2024-03-06T13:39:10;5.45;;;3.42;;
28926;SDS011;16038;47.692;9.400;2024-03-06T13:41:36;8.43;;;5.03;;
28926;SDS011;16038;47.692;9.400;2024-03-06T13:44:01;6.15;;;3.80;;
28926;SDS011;16038;47.692;9.400;2024-03-06T13:46:27;4.85;;;3.75;;
28926;SDS011;16038;47.692;9.400;2024-03-06T13:48:52;5.45;;;3.97;;
28926;SDS011;16038;47.692;9.400;2024-03-06T13:51:18;5.13;;;3.60;;
28926;SDS011;16038;47.692;9.400;2024-03-06T13:53:43;4.40;;;3.22;;
28926;SDS011;16038;47.692;9.400;2024-03-06T13:56:09;4.30;;;2.97;;
28926;SDS011;16038;47.692;9.400;2024-03-06T13:58:34;5.88;;;2.22;;
28926;SDS011;16038;47.692;9.400;2024-03-06T14:00:59;5.22;;;3.13;;
28926;SDS011;16038;47.692;9.400;2024-03-06T14:03:25;4.45;;;3.47;;
28926;SDS011;16038;47.692;9.400;2024-03-06T14:05:51;5.43;;;4.15;;
28926;SDS011;16038;47.692;9.400;2024-03-06T14:08:16;10.52;;;8.07;;
28926;SDS011;16038;47.692;9.400;2024-03-06T14:10:42;11.85;;;6.82;;
28926;SDS011;16038;47.692;9.400;2024-03-06T14:13:07;5.90;;;4.00;;
28926;SDS011;16038;47.692;9.400;2024-03-06T14:15:34;4.13;;;3.10;;
28926;SDS011;16038;47.692;9.400;2024-03-06T14:17:59;4.53;;;2.58;;
28926;SDS011;16038;47.692;9.400;2024-03-06T14:20:26;4.35;;;2.40;;
28926;SDS011;16038;47.692;9.400;2024-03-06T14:22:53;3.58;;;3.05;;
28926;SDS011;16038;47.692;9.400;2024-03-06T14:25:18;6.68;;;4.72;;
28926;SDS011;16038;47.692;9.400;2024-03-06T14:27:44;4.32;;;3.15;;
28926;SDS011;16038;47.692;9.400;2024-03-06T14:30:10;7.53;;;5.25;;
28926;SDS011;16038;47.692;9.400;2024-03-06T14:32:36;6.57;;;4.95;;
28926;SDS011;16038;47.692;9.400;2024-03-06T14:35:03;9.82;;;7.95;;
28926;SDS011;16038;47.692;9.400;2024-03-06T14:37:29;10.60;;;7.72;;
28926;SDS011;16038;47.692;9.400;2024-03-06T14:39:55;8.57;;;5.70;;
28926;SDS011;16038;47.692;9.400;2024-03-06T14:42:20;7.13;;;5.32;;
28926;SDS011;16038;47.692;9.400;2024-03-06T14:44:46;5.20;;;3.60;;
28926;SDS011;16038;47.692;9.400;2024-03-06T14:47:11;5.97;;;4.00;;
28926;SDS011;16038;47.692;9.400;2024-03-06T14:49:38;9.35;;;4.68;;
28926;SDS011;16038;47.692;9.400;2024-03-06T14:52:05;7.03;;;4.25;;